Time;durP1;ratioP1;P1;durP2;ratioP2;P2;SDS_P1;SDS_P2;PMS_P1;PMS_P2;Temp;Humidity;BMP_temperature;BMP_pressure;BME280_temperature;BME280_humidity;BME280_pressure;Samples;Min_cycle;Max_cycle;Signal;HPM_P1;HPM_P2
2022/06/25 00:00:58;;;;;;;5.13;3.97;;;;;;;19.58;59.50;95283.00;5029284;28;20339;-86
2022/06/25 00:03:24;;;;;;;6.57;4.32;;;;;;;19.58;59.30;95283.00;5029269;28;20025;-86
2022/06/25 00:05:49;;;;;;;7.40;4.53;;;;;;;19.50;59.30;95282.31;5028937;28;20474;-86
2022/06/25 00:08:15;;;;;;;9.93;4.40;;;;;;;19.46;59.50;95272.97;5011403;28;20033;-86
2022/06/25 00:10:40;;;;;;;5.65;4.20;;;;;;;19.45;59.38;95273.19;5011217;28;20474;-85
2022/06/25 00:13:21;;;;;;;8.60;4.30;;;;;;;19.45;59.60;95267.75;5032932;28;20052;-84
2022/06/25 00:15:46;;;;;;;5.93;4.40;;;;;;;19.39;59.84;95269.53;5027882;28;20413;-84
2022/06/25 00:18:12;;;;;;;7.28;4.60;;;;;;;19.37;59.84;95266.22;5010953;28;20460;-84
2022/06/25 00:20:38;;;;;;;6.10;4.32;;;;;;;19.34;60.24;95266.69;5011180;28;20523;-84
2022/06/25 00:23:03;;;;;;;5.55;4.55;;;;;;;19.34;59.92;95269.41;5011114;28;20038;-84
2022/06/25 00:25:29;;;;;;;5.53;4.65;;;;;;;19.32;60.65;95269.66;5028161;28;20026;-85
2022/06/25 00:27:54;;;;;;;7.97;4.57;;;;;;;19.34;60.25;95278.41;5031225;28;20035;-85
2022/06/25 00:30:20;;;;;;;9.15;4.53;;;;;;;19.32;60.13;95269.66;5033167;28;20033;-85
2022/06/25 00:32:45;;;;;;;6.38;4.25;;;;;;;19.31;60.30;95276.16;5029127;28;20021;-84
2022/06/25 00:35:11;;;;;;;5.82;4.40;;;;;;;19.31;60.39;95278.88;5027534;28;20030;-84
2022/06/25 00:37:36;;;;;;;6.10;4.43;;;;;;;19.31;61.06;95278.06;5029204;28;20033;-85
2022/06/25 00:40:02;;;;;;;8.00;4.82;;;;;;;19.28;61.14;95268.50;5027101;28;20026;-85
2022/06/25 00:42:28;;;;;;;6.68;4.55;;;;;;;19.24;60.97;95265.41;5027152;28;20524;-84
2022/06/25 00:44:56;;;;;;;6.38;4.38;;;;;;;19.25;61.05;95261.63;5010529;28;20025;-85
2022/06/25 00:47:22;;;;;;;10.75;4.40;;;;;;;19.25;60.65;95260.78;5011318;28;20043;-84
2022/06/25 00:49:47;;;;;;;7.53;3.90;;;;;;;19.23;60.54;95257.50;5028031;28;20104;-85
2022/06/25 00:52:14;;;;;;;4.78;3.92;;;;;;;19.13;61.66;95272.50;5027007;28;20026;-85
2022/06/25 00:54:45;;;;;;;4.97;4.10;;;;;;;19.20;61.55;95277.00;5028199;28;20564;-85
2022/06/25 00:57:11;;;;;;;5.55;4.40;;;;;;;19.11;60.81;95277.34;5028487;28;20055;-85
2022/06/25 00:59:44;;;;;;;5.65;4.72;;;;;;;19.05;60.76;95269.25;4994344;28;20049;-85
2022/06/25 01:02:09;;;;;;;7.72;4.38;;;;;;;19.08;60.80;95272.34;5010889;28;20108;-85
2022/06/25 01:04:37;;;;;;;5.32;4.60;;;;;;;19.13;60.74;95274.38;5028833;28;20037;-85
2022/06/25 01:07:02;;;;;;;6.10;4.53;;;;;;;19.15;60.83;95269.53;5026550;28;20026;-85
2022/06/25 01:09:28;;;;;;;6.25;4.60;;;;;;;19.09;60.76;95276.72;5029998;28;20036;-84
2022/06/25 01:11:53;;;;;;;7.80;4.32;;;;;;;19.11;61.03;95273.78;5007620;28;20455;-85
2022/06/25 01:14:19;;;;;;;6.97;4.75;;;;;;;19.10;60.73;95275.66;5038966;28;20021;-86
2022/06/25 01:16:44;;;;;;;5.05;4.20;;;;;;;19.11;61.23;95266.47;5025562;28;20025;-85
2022/06/25 01:19:11;;;;;;;6.72;4.38;;;;;;;19.14;61.35;95262.44;5037833;28;20057;-86
2022/06/25 01:21:36;;;;;;;5.75;4.18;;;;;;;19.09;61.75;95267.72;5004171;28;20061;-85
2022/06/25 01:24:06;;;;;;;6.50;4.30;;;;;;;19.05;62.17;95259.22;5026640;28;20052;-85
2022/06/25 01:26:35;;;;;;;5.18;4.50;;;;;;;19.08;61.44;95268.78;4994425;28;20026;-85
2022/06/25 01:29:01;;;;;;;6.45;4.60;;;;;;;19.06;61.30;95270.91;5010106;28;20148;-85
2022/06/25 01:31:27;;;;;;;5.35;4.40;;;;;;;19.06;61.68;95273.63;5026362;28;20021;-85
2022/06/25 01:33:52;;;;;;;8.88;4.05;;;;;;;19.03;61.63;95272.22;5010176;28;20035;-86
2022/06/25 01:36:18;;;;;;;5.22;4.22;;;;;;;19.01;61.72;95266.19;5025501;28;20025;-85
2022/06/25 01:38:45;;;;;;;6.05;4.25;;;;;;;18.94;61.91;95263.59;5027510;28;20543;-86
2022/06/25 01:41:10;;;;;;;7.43;4.55;;;;;;;18.94;61.70;95268.19;4993329;28;20036;-85
2022/06/25 01:43:35;;;;;;;9.43;4.45;;;;;;;18.89;61.08;95272.41;5010037;28;20096;-86
2022/06/25 01:46:01;;;;;;;7.22;4.65;;;;;;;18.86;61.09;95272.09;5025235;28;20099;-86
2022/06/25 01:48:26;;;;;;;8.88;5.00;;;;;;;18.76;60.83;95272.66;5026637;28;20032;-85
2022/06/25 01:50:52;;;;;;;7.22;4.85;;;;;;;18.71;61.49;95259.78;5025844;28;20500;-86
2022/06/25 01:53:17;;;;;;;6.85;5.10;;;;;;;18.61;62.01;95271.19;5025830;28;20029;-85
2022/06/25 01:55:43;;;;;;;7.00;4.97;;;;;;;18.62;61.78;95272.03;4993414;28;20029;-86
2022/06/25 01:58:08;;;;;;;5.68;4.70;;;;;;;18.63;61.97;95282.66;5009297;28;20036;-85
2022/06/25 02:00:34;;;;;;;6.43;4.50;;;;;;;18.65;62.21;95285.94;5026052;28;20132;-85
2022/06/25 02:03:00;;;;;;;7.97;5.35;;;;;;;18.68;62.23;95286.56;5025707;28;20021;-85
2022/06/25 02:08:13;;;;;;;10.27;5.13;;;;;;;18.72;61.80;95287.72;5012328;28;20499;-86
2022/06/25 02:10:38;;;;;;;9.30;4.80;;;;;;;18.68;61.64;95294.72;5025826;28;20503;-86
2022/06/25 02:13:04;;;;;;;8.70;5.15;;;;;;;18.67;61.64;95295.78;5009742;28;20033;-86
2022/06/25 02:15:29;;;;;;;8.73;4.97;;;;;;;18.59;61.81;95286.88;5025726;28;20128;-85
2022/06/25 02:17:55;;;;;;;7.43;5.40;;;;;;;18.62;61.71;95293.75;5009690;28;20044;-85
2022/06/25 02:20:21;;;;;;;7.07;4.57;;;;;;;18.62;62.26;95286.41;4992729;28;20049;-86
2022/06/25 02:22:47;;;;;;;6.43;4.93;;;;;;;18.61;62.23;95287.50;5027078;28;20105;-85
2022/06/25 02:25:12;;;;;;;7.28;5.00;;;;;;;18.57;61.99;95283.56;5025521;28;20100;-86
2022/06/25 02:27:38;;;;;;;7.55;5.15;;;;;;;18.49;62.35;95289.34;5027696;28;20037;-86
2022/06/25 02:30:03;;;;;;;6.13;5.07;;;;;;;18.50;62.27;95293.72;5025797;28;20036;-85
2022/06/25 02:32:33;;;;;;;5.93;5.03;;;;;;;18.46;62.20;95296.03;5027082;28;20029;-84
2022/06/25 02:34:58;;;;;;;8.15;5.30;;;;;;;18.47;62.77;95305.88;5026097;28;20100;-85
2022/06/25 02:37:24;;;;;;;6.25;5.40;;;;;;;18.45;62.94;95309.84;5026710;28;20069;-85
2022/06/25 02:39:49;;;;;;;10.70;5.47;;;;;;;18.50;62.75;95301.84;5027217;28;20040;-85
2022/06/25 02:42:15;;;;;;;9.35;4.75;;;;;;;18.52;62.77;95302.47;5025987;28;20079;-85
2022/06/25 02:44:40;;;;;;;7.68;4.70;;;;;;;18.48;63.10;95304.81;5025313;28;20484;-85
2022/06/25 02:47:06;;;;;;;6.18;4.65;;;;;;;18.49;62.84;95301.00;5025806;28;20485;-85
2022/06/25 02:49:31;;;;;;;7.57;5.07;;;;;;;18.58;63.00;95293.38;5025180;28;20029;-85
2022/06/25 02:51:56;;;;;;;8.63;5.05;;;;;;;18.66;62.75;95289.50;5009183;28;20087;-85
2022/06/25 02:54:22;;;;;;;7.25;5.65;;;;;;;18.65;62.66;95282.44;5024773;28;20164;-85
2022/06/25 02:59:32;;;;;;;7.05;5.45;;;;;;;18.62;64.52;95293.75;5025102;28;20428;-86
2022/06/25 03:01:57;;;;;;;8.63;4.93;;;;;;;18.70;64.78;95289.88;5008634;28;20488;-85
2022/06/25 03:04:24;;;;;;;6.28;4.88;;;;;;;18.57;65.42;95290.91;5008197;28;20056;-86
2022/06/25 03:06:50;;;;;;;6.25;5.15;;;;;;;18.61;64.66;95314.66;4992564;28;20029;-85
2022/06/25 03:09:16;;;;;;;6.85;5.25;;;;;;;18.61;64.70;95314.66;5008465;28;20025;-86
2022/06/25 03:11:42;;;;;;;10.02;5.03;;;;;;;18.70;64.52;95306.19;5008092;28;20036;-86
2022/06/25 03:14:07;;;;;;;9.82;5.50;;;;;;;18.74;64.60;95307.34;5009550;28;20079;-86
2022/06/25 03:16:32;;;;;;;7.15;5.13;;;;;;;18.74;64.45;95302.75;5008289;28;20026;-86
2022/06/25 03:18:58;;;;;;;7.80;5.30;;;;;;;18.79;63.63;95304.78;5026029;28;20056;-86
2022/06/25 03:21:23;;;;;;;7.15;5.45;;;;;;;18.81;63.62;95296.41;5024097;28;20769;-86
2022/06/25 03:23:49;;;;;;;7.70;5.20;;;;;;;18.75;63.78;95303.56;5026428;28;20032;-85
2022/06/25 03:26:14;;;;;;;6.07;5.20;;;;;;;18.83;63.06;95297.81;5025875;28;20030;-86
2022/06/25 03:28:40;;;;;;;6.88;5.28;;;;;;;18.88;63.07;95295.22;5024550;28;20428;-86
2022/06/25 03:31:05;;;;;;;7.43;4.95;;;;;;;18.93;62.76;95286.38;5008407;28;20025;-86
2022/06/25 03:33:31;;;;;;;8.63;5.38;;;;;;;18.95;62.79;95297.00;5024394;28;20037;-86
2022/06/25 03:35:56;;;;;;;6.38;4.97;;;;;;;18.96;64.15;95298.69;5026519;28;20037;-86
2022/06/25 03:38:22;;;;;;;8.23;5.18;;;;;;;18.99;64.51;95293.59;5024302;28;20046;-86
2022/06/25 03:40:47;;;;;;;8.35;5.53;;;;;;;18.96;64.73;95288.63;5025030;28;20033;-86
2022/06/25 03:43:13;;;;;;;8.40;5.70;;;;;;;19.04;64.25;95295.59;5032648;28;20033;-86
2022/06/25 03:45:38;;;;;;;8.38;5.45;;;;;;;19.06;64.56;95296.19;5030024;28;20033;-86
2022/06/25 03:48:04;;;;;;;10.75;5.65;;;;;;;19.06;64.78;95292.63;5008441;28;20469;-87
2022/06/25 03:50:30;;;;;;;9.55;6.20;;;;;;;19.10;65.45;95291.97;5008165;28;20025;-85
2022/06/25 03:52:55;;;;;;;9.95;6.10;;;;;;;19.17;65.28;95274.75;5024994;28;20056;-85
2022/06/25 03:55:21;;;;;;;10.63;6.20;;;;;;;18.97;65.10;95274.00;5025423;28;20080;-86
2022/06/25 03:57:46;;;;;;;9.30;6.80;;;;;;;18.75;66.51;95281.84;5026219;28;20069;-85
2022/06/25 04:00:12;;;;;;;9.20;6.00;;;;;;;18.74;67.39;95280.19;5011283;28;20502;-85
2022/06/25 04:02:37;;;;;;;11.55;5.75;;;;;;;18.78;67.72;95282.22;5011392;28;20385;-85
2022/06/25 04:05:03;;;;;;;10.70;6.15;;;;;;;18.87;67.87;95295.47;5029444;28;20029;-85
2022/06/25 04:07:29;;;;;;;9.85;6.32;;;;;;;18.93;67.43;95299.97;5029273;28;20083;-85
2022/06/25 04:09:54;;;;;;;11.68;5.85;;;;;;;18.96;67.88;95298.69;5028068;28;20108;-87
2022/06/25 04:12:20;;;;;;;10.23;6.50;;;;;;;19.01;68.29;95301.50;5027588;28;20029;-85
2022/06/25 04:14:45;;;;;;;9.50;6.03;;;;;;;19.09;67.94;95297.59;5028027;28;20336;-85
2022/06/25 04:17:12;;;;;;;9.85;6.18;;;;;;;19.04;68.33;95306.47;5011037;28;20026;-85
2022/06/25 04:19:40;;;;;;;8.73;6.40;;;;;;;18.95;67.73;95316.03;4995060;28;20063;-85
2022/06/25 04:22:09;;;;;;;9.13;6.25;;;;;;;18.93;67.38;95315.41;5027016;28;20095;-85
2022/06/25 04:24:35;;;;;;;8.00;6.28;;;;;;;19.01;67.37;95312.38;5010957;28;20028;-85
2022/06/25 04:27:01;;;;;;;8.18;5.70;;;;;;;19.09;67.57;95308.47;5028508;28;20483;-84
2022/06/25 04:29:27;;;;;;;7.97;5.93;;;;;;;19.11;68.35;95307.22;5010676;28;20025;-85
2022/06/25 04:31:52;;;;;;;9.60;6.55;;;;;;;19.14;68.14;95316.78;5011134;28;20036;-85
2022/06/25 04:34:18;;;;;;;9.13;5.72;;;;;;;19.19;67.92;95313.38;5026976;28;20404;-85
2022/06/25 04:36:43;;;;;;;8.90;6.03;;;;;;;19.21;67.87;95320.25;5027546;28;20029;-86
2022/06/25 04:39:09;;;;;;;9.02;5.88;;;;;;;19.21;67.42;95322.13;5027094;28;20033;-85
2022/06/25 04:41:34;;;;;;;8.02;5.90;;;;;;;19.24;67.43;95318.94;5029303;28;20036;-86
2022/06/25 04:44:01;;;;;;;6.95;6.22;;;;;;;19.19;65.79;95310.66;5028725;28;20037;-85
2022/06/25 04:46:29;;;;;;;8.30;6.28;;;;;;;19.29;65.04;95315.50;5029140;28;20025;-87
2022/06/25 04:48:55;;;;;;;9.77;5.88;;;;;;;19.36;64.53;95325.22;4995277;28;20546;-87
2022/06/25 04:51:21;;;;;;;11.48;7.55;;;;;;;19.49;65.16;95323.34;5028410;28;20033;-85
2022/06/25 04:53:55;;;;;;;8.52;6.15;;;;;;;19.63;65.61;95319.31;5010385;28;20045;-86
2022/06/25 04:56:28;;;;;;;8.27;6.10;;;;;;;19.75;64.93;95322.00;5011547;28;20442;-85
2022/06/25 04:58:54;;;;;;;8.15;6.00;;;;;;;19.73;64.87;95331.50;4994880;28;20029;-85
2022/06/25 05:01:20;;;;;;;11.32;6.68;;;;;;;19.77;64.70;95328.06;5010733;28;20033;-85
2022/06/25 05:03:45;;;;;;;9.25;6.68;;;;;;;19.84;64.52;95317.06;5026832;28;20025;-84
2022/06/25 05:06:11;;;;;;;8.10;7.05;;;;;;;19.89;64.26;95316.34;5010781;28;20468;-86
2022/06/25 05:08:37;;;;;;;7.28;6.55;;;;;;;19.89;64.53;95316.34;5010419;28;20024;-86
2022/06/25 05:11:02;;;;;;;10.77;6.68;;;;;;;19.96;64.87;95317.00;5026171;28;20034;-84
2022/06/25 05:13:28;;;;;;;10.20;6.53;;;;;;;19.92;63.86;95321.28;5028384;28;20029;-85
2022/06/25 05:15:53;;;;;;;9.30;7.13;;;;;;;19.83;64.67;95328.97;5010624;28;20037;-87
2022/06/25 05:18:19;;;;;;;9.30;6.90;;;;;;;19.93;65.19;95330.25;4993549;28;20116;-85
2022/06/25 05:20:44;;;;;;;10.07;7.00;;;;;;;19.86;65.01;95336.66;5010093;28;20040;-86
2022/06/25 05:23:10;;;;;;;8.43;7.32;;;;;;;19.95;64.80;95341.75;5010415;28;20032;-87
2022/06/25 05:25:35;;;;;;;11.70;7.07;;;;;;;20.01;64.54;95340.78;4994072;28;20025;-86
2022/06/25 05:28:01;;;;;;;10.00;7.20;;;;;;;20.05;64.33;95341.19;5010669;28;20072;-87
2022/06/25 05:30:27;;;;;;;11.93;7.15;;;;;;;20.12;64.76;95336.41;5026625;28;20029;-87
2022/06/25 05:32:52;;;;;;;10.75;7.72;;;;;;;20.15;64.84;95335.13;5026373;28;20095;-87
2022/06/25 05:35:18;;;;;;;9.35;7.00;;;;;;;20.16;64.69;95323.16;5027447;28;20021;-89
2022/06/25 05:37:43;;;;;;;9.98;7.10;;;;;;;20.37;63.00;95327.97;5010102;28;20093;-87
2022/06/25 05:40:10;;;;;;;10.98;6.30;;;;;;;20.17;63.03;95322.09;5030499;28;20040;-85
2022/06/25 05:42:36;;;;;;;11.35;7.40;;;;;;;20.22;63.47;95330.34;5028595;28;20142;-86
2022/06/25 05:45:02;;;;;;;16.77;7.32;;;;;;;20.51;63.04;95338.56;5028174;28;20030;-86
2022/06/25 05:47:27;;;;;;;9.38;6.97;;;;;;;20.68;62.03;95340.50;5011008;28;20025;-86
2022/06/25 05:49:53;;;;;;;12.55;7.35;;;;;;;20.76;62.14;95340.13;5026664;28;20178;-85
2022/06/25 05:52:18;;;;;;;13.45;6.82;;;;;;;20.93;61.54;95344.78;5027884;28;20022;-87
2022/06/25 05:54:44;;;;;;;11.73;6.05;;;;;;;21.01;59.97;95338.13;5010601;28;20034;-86
2022/06/25 05:57:09;;;;;;;7.88;6.43;;;;;;;21.12;59.62;95342.66;5026562;28;20033;-85
2022/06/25 05:59:35;;;;;;;9.70;6.40;;;;;;;21.18;59.82;95338.97;5030806;28;20449;-87
2022/06/25 06:02:00;;;;;;;7.85;5.80;;;;;;;21.27;58.70;95328.47;5029390;28;20041;-86
2022/06/25 06:04:26;;;;;;;9.52;7.45;;;;;;;21.36;60.28;95326.97;5028085;28;20033;-86
2022/06/25 06:06:52;;;;;;;8.93;6.47;;;;;;;21.37;60.56;95330.53;5026046;28;20537;-86
2022/06/25 06:09:17;;;;;;;8.43;6.18;;;;;;;21.51;61.16;95330.19;4992888;28;20022;-86
2022/06/25 06:11:43;;;;;;;9.45;7.05;;;;;;;21.52;59.44;95331.84;5010603;28;20507;-86
2022/06/25 06:14:09;;;;;;;9.43;6.63;;;;;;;21.43;60.94;95325.97;5029602;28;20025;-85
2022/06/25 06:16:34;;;;;;;9.07;6.85;;;;;;;21.47;60.50;95325.22;5029523;28;20037;-88
2022/06/25 06:19:00;;;;;;;11.18;7.00;;;;;;;21.62;60.46;95334.72;5011985;28;20073;-87
2022/06/25 06:21:25;;;;;;;9.15;6.65;;;;;;;21.72;59.04;95336.78;5026056;28;20036;-85
2022/06/25 06:23:51;;;;;;;10.00;6.93;;;;;;;21.83;59.02;95324.13;5025481;28;20030;-86
2022/06/25 06:26:16;;;;;;;6.93;5.97;;;;;;;22.05;58.78;95337.00;5009036;28;20029;-88
2022/06/25 06:28:43;;;;;;;10.88;7.30;;;;;;;22.23;58.44;95327.69;5028460;28;20059;-86
2022/06/25 06:31:08;;;;;;;9.38;7.03;;;;;;;22.29;59.85;95323.94;4992647;28;20030;-86
2022/06/25 06:33:34;;;;;;;11.43;6.50;;;;;;;22.43;57.32;95318.91;5027076;28;20033;-86
2022/06/25 06:35:59;;;;;;;12.48;6.63;;;;;;;22.49;57.01;95311.56;5025354;28;20025;-87
2022/06/25 06:38:24;;;;;;;8.55;6.35;;;;;;;22.66;56.59;95321.63;5027048;28;20021;-86
2022/06/25 06:40:50;;;;;;;11.05;6.60;;;;;;;22.83;59.18;95325.09;5008493;28;20075;-86
2022/06/25 06:43:15;;;;;;;9.35;6.75;;;;;;;22.84;57.12;95320.44;5009212;28;20083;-86
2022/06/25 06:45:41;;;;;;;8.60;5.95;;;;;;;22.95;57.30;95326.84;5026608;28;20131;-87
2022/06/25 06:48:06;;;;;;;9.98;6.60;;;;;;;22.95;55.95;95326.84;5027243;28;20022;-87
2022/06/25 06:50:32;;;;;;;11.35;7.30;;;;;;;23.06;58.24;95317.66;5030155;28;20068;-86
2022/06/25 06:52:57;;;;;;;7.70;6.35;;;;;;;23.10;55.38;95326.16;5027533;28;20026;-86
2022/06/25 06:55:23;;;;;;;8.52;6.30;;;;;;;22.96;54.48;95331.22;5031466;28;20030;-86
2022/06/25 06:57:48;;;;;;;7.53;5.90;;;;;;;22.82;55.32;95331.66;5031791;28;20499;-85
2022/06/25 07:00:14;;;;;;;7.00;5.78;;;;;;;22.87;55.45;95328.13;5025741;28;20462;-87
2022/06/25 07:02:39;;;;;;;7.80;5.68;;;;;;;23.01;55.23;95320.34;5009113;28;20039;-86
2022/06/25 07:05:05;;;;;;;10.27;5.97;;;;;;;23.15;52.42;95325.38;5025019;28;20147;-86
2022/06/25 07:07:31;;;;;;;8.25;5.32;;;;;;;23.23;51.76;95322.16;5008326;28;20045;-87
2022/06/25 07:09:56;;;;;;;6.40;4.88;;;;;;;23.30;50.97;95325.50;5008256;28;20029;-86
2022/06/25 07:12:21;;;;;;;7.30;5.40;;;;;;;23.46;50.66;95325.66;5024715;28;20049;-85
2022/06/25 07:14:47;;;;;;;9.30;5.20;;;;;;;23.52;50.67;95319.13;5025640;28;20029;-86
2022/06/25 07:17:12;;;;;;;5.68;5.00;;;;;;;23.51;51.15;95309.28;5008833;28;20033;-86
2022/06/25 07:19:38;;;;;;;11.57;6.20;;;;;;;23.70;52.38;95312.41;4991184;28;20041;-86
2022/06/25 07:22:03;;;;;;;11.18;5.47;;;;;;;23.88;52.34;95314.97;5025123;28;20087;-88
2022/06/25 07:24:29;;;;;;;5.85;5.28;;;;;;;24.02;52.39;95309.84;5024510;28;20029;-87
2022/06/25 07:26:54;;;;;;;13.05;6.93;;;;;;;23.89;52.38;95308.41;5009135;28;20112;-88
2022/06/25 07:29:20;;;;;;;8.88;5.88;;;;;;;23.89;52.79;95311.16;5008788;28;20523;-85
2022/06/25 07:31:45;;;;;;;8.05;5.65;;;;;;;23.88;51.19;95315.81;5026195;28;20400;-86
2022/06/25 07:34:12;;;;;;;11.43;5.93;;;;;;;23.88;52.83;95314.97;5010678;28;20028;-87
2022/06/25 07:36:37;;;;;;;9.43;5.50;;;;;;;23.99;51.85;95321.34;5012802;28;20027;-87
2022/06/25 07:39:03;;;;;;;9.75;6.10;;;;;;;23.90;51.85;95324.59;5012872;28;20808;-87
2022/06/25 07:41:28;;;;;;;9.85;5.68;;;;;;;24.05;51.31;95321.09;5011376;28;20484;-86
2022/06/25 07:43:53;;;;;;;8.90;5.30;;;;;;;24.16;50.87;95321.19;5028714;28;20029;-85
2022/06/25 07:46:19;;;;;;;7.25;5.45;;;;;;;24.25;50.48;95325.06;5029283;28;20480;-86
2022/06/25 07:48:45;;;;;;;8.27;5.30;;;;;;;24.31;49.08;95328.66;5028075;28;20411;-86
2022/06/25 07:53:54;;;;;;;7.68;5.43;;;;;;;24.48;50.00;95322.13;5028214;28;20096;-87
2022/06/25 07:56:20;;;;;;;10.02;6.18;;;;;;;24.59;50.10;95323.81;5028635;28;20034;-86
2022/06/25 07:58:45;;;;;;;10.40;6.25;;;;;;;24.46;50.51;95322.38;5029281;28;20036;-87
2022/06/25 08:01:11;;;;;;;10.35;6.07;;;;;;;24.57;49.62;95321.34;5011700;28;20389;-87
2022/06/25 08:03:36;;;;;;;12.50;5.90;;;;;;;24.61;51.78;95321.63;4994929;28;20026;-86
2022/06/25 08:06:02;;;;;;;8.07;6.43;;;;;;;24.68;52.27;95324.91;5028051;28;20025;-86
2022/06/25 08:08:27;;;;;;;10.25;6.35;;;;;;;24.89;50.11;95321.41;5030839;28;20037;-86
2022/06/25 08:10:53;;;;;;;13.35;6.43;;;;;;;24.89;51.31;95319.50;5030931;28;20488;-87
2022/06/25 08:13:18;;;;;;;10.43;6.57;;;;;;;24.47;52.27;95324.06;5030664;28;20037;-86
2022/06/25 08:15:44;;;;;;;7.63;5.90;;;;;;;24.80;51.96;95318.38;5011738;28;20100;-86
2022/06/25 08:18:09;;;;;;;13.02;6.40;;;;;;;24.86;51.29;95321.97;5011456;28;20032;-87
2022/06/25 08:20:36;;;;;;;8.70;6.68;;;;;;;25.01;50.93;95318.44;5010706;28;20519;-86
2022/06/25 08:23:01;;;;;;;9.90;7.25;;;;;;;25.17;50.16;95313.78;5011846;28;20052;-86
2022/06/25 08:25:27;;;;;;;11.27;6.80;;;;;;;25.15;49.71;95318.75;5011239;28;20030;-87
2022/06/25 08:27:53;;;;;;;8.23;6.22;;;;;;;25.01;49.53;95311.03;5028728;28;20443;-87
2022/06/25 08:30:19;;;;;;;15.93;6.22;;;;;;;25.14;51.04;95306.09;5011237;28;20047;-86
2022/06/25 08:32:45;;;;;;;10.05;5.75;;;;;;;25.23;50.97;95295.41;5028339;28;20499;-86
2022/06/25 08:35:10;;;;;;;8.85;6.45;;;;;;;25.41;48.99;95305.00;5027580;28;20026;-86
2022/06/25 08:37:55;;;;;;;6.85;6.18;;;;;;;25.38;50.16;95311.03;5026599;28;20509;-86
2022/06/25 08:40:20;;;;;;;9.40;6.10;;;;;;;25.21;48.67;95312.16;5010921;28;20029;-86
2022/06/25 08:42:49;;;;;;;12.27;6.65;;;;;;;25.10;48.57;95322.28;4993748;28;20045;-86
2022/06/25 08:45:16;;;;;;;8.75;6.30;;;;;;;25.42;48.15;95317.63;5028378;28;20036;-86
2022/06/25 08:47:50;;;;;;;8.60;6.30;;;;;;;25.45;47.87;95311.59;5010918;28;20427;-85
2022/06/25 08:50:17;;;;;;;8.85;6.43;;;;;;;25.15;48.31;95316.81;5010427;28;20121;-86
2022/06/25 08:52:47;;;;;;;11.73;6.30;;;;;;;25.02;47.82;95317.34;5027400;28;20458;-85
2022/06/25 08:55:31;;;;;;;9.90;6.32;;;;;;;25.04;47.37;95310.50;5010731;28;20116;-84
2022/06/25 08:57:57;;;;;;;7.57;5.95;;;;;;;24.95;47.88;95320.34;5011269;28;20404;-87
2022/06/25 09:00:23;;;;;;;12.02;5.85;;;;;;;25.09;46.30;95314.31;5010507;28;20030;-85
2022/06/25 09:02:49;;;;;;;6.45;5.00;;;;;;;25.45;47.75;95319.84;5026713;28;20484;-84
2022/06/25 09:05:14;;;;;;;8.18;5.78;;;;;;;25.77;44.93;95317.91;5026886;28;20483;-84
2022/06/25 09:07:52;;;;;;;8.82;6.07;;;;;;;25.90;45.86;95322.81;5027820;28;20029;-86
2022/06/25 09:10:21;;;;;;;11.95;6.15;;;;;;;25.60;46.07;95326.41;5010295;28;20338;-86
2022/06/25 09:12:51;;;;;;;13.20;6.53;;;;;;;25.26;45.36;95325.84;4993127;28;20028;-86
2022/06/25 09:15:21;;;;;;;9.82;6.00;;;;;;;25.47;45.23;95323.09;5010503;28;20025;-86
2022/06/25 09:17:48;;;;;;;7.72;5.72;;;;;;;25.48;46.88;95310.22;5010956;28;20029;-85
2022/06/25 09:20:13;;;;;;;9.35;6.75;;;;;;;25.97;45.77;95317.00;5026171;28;20053;-85
2022/06/25 09:22:39;;;;;;;11.45;6.47;;;;;;;25.73;45.14;95314.06;5026334;28;20079;-86
2022/06/25 09:25:04;;;;;;;9.57;6.43;;;;;;;26.04;46.72;95311.22;5026013;28;20289;-86
2022/06/25 09:27:36;;;;;;;8.85;5.78;;;;;;;26.22;46.36;95312.56;5027955;28;20407;-86
2022/06/25 09:30:13;;;;;;;11.40;6.93;;;;;;;26.53;46.74;95306.97;5027238;28;20021;-85
2022/06/25 09:32:46;;;;;;;12.27;6.63;;;;;;;26.34;44.02;95312.28;5027874;28;20037;-85
2022/06/25 09:35:12;;;;;;;11.35;6.28;;;;;;;26.61;44.15;95308.28;5025830;28;20397;-86
2022/06/25 09:37:38;;;;;;;10.70;6.22;;;;;;;26.59;45.63;95310.50;5026133;28;20423;-85
2022/06/25 09:40:04;;;;;;;11.38;6.10;;;;;;;26.71;45.99;95318.44;5009850;28;20025;-86
2022/06/25 09:42:32;;;;;;;9.45;6.68;;;;;;;26.51;45.49;95303.66;5009437;28;20025;-87
2022/06/25 09:45:15;;;;;;;9.10;6.50;;;;;;;26.74;45.11;95306.84;5026364;28;20021;-85
2022/06/25 09:47:45;;;;;;;10.82;6.30;;;;;;;26.63;45.41;95295.06;5026084;28;20087;-86
2022/06/25 09:50:15;;;;;;;10.80;6.65;;;;;;;26.38;44.91;95293.28;5009896;28;20030;-86
2022/06/25 09:52:54;;;;;;;15.57;7.10;;;;;;;26.16;46.13;95288.94;5010075;28;20420;-85
2022/06/25 09:55:23;;;;;;;13.38;7.82;;;;;;;26.05;47.20;95290.91;5029966;28;20083;-86
2022/06/25 09:57:49;;;;;;;13.50;7.18;;;;;;;26.04;46.89;95294.75;5038189;28;20112;-85
2022/06/25 10:00:14;;;;;;;10.73;6.78;;;;;;;25.89;47.31;95287.41;5022067;28;20021;-86
2022/06/25 10:02:42;;;;;;;11.38;6.38;;;;;;;25.94;46.83;95281.06;5022231;28;20060;-87
2022/06/25 10:05:07;;;;;;;14.10;6.47;;;;;;;26.16;46.80;95280.69;5017335;28;20029;-86
2022/06/25 10:10:19;;;;;;;15.63;7.50;;;;;;;26.10;47.59;95276.34;5028950;28;20039;-86
2022/06/25 10:12:48;;;;;;;12.23;6.63;;;;;;;26.09;48.35;95274.66;5022941;28;20065;-86
2022/06/25 10:15:18;;;;;;;11.98;7.00;;;;;;;26.24;47.15;95276.53;5029382;28;20029;-86
2022/06/25 10:17:48;;;;;;;9.95;6.95;;;;;;;26.19;46.82;95274.66;5010717;28;20484;-85
2022/06/25 10:20:14;;;;;;;10.43;6.65;;;;;;;26.09;47.00;95280.16;5026326;28;20136;-86
2022/06/25 10:22:39;;;;;;;11.50;6.80;;;;;;;26.36;46.98;95276.25;5025525;28;20025;-88
2022/06/25 10:25:08;;;;;;;11.68;7.05;;;;;;;26.41;46.75;95271.53;5008677;28;20021;-86
2022/06/25 10:27:39;;;;;;;11.82;6.72;;;;;;;26.60;47.76;95267.34;5009397;28;20432;-87
2022/06/25 10:30:04;;;;;;;10.38;6.68;;;;;;;26.58;47.13;95264.88;5008784;28;20025;-86
2022/06/25 10:32:34;;;;;;;12.88;6.90;;;;;;;26.60;46.50;95261.84;5009037;28;20514;-85
2022/06/25 10:35:01;;;;;;;15.93;6.70;;;;;;;26.59;47.02;95265.66;5009073;28;20021;-86
2022/06/25 10:37:27;;;;;;;11.07;7.28;;;;;;;26.52;45.95;95255.81;5025313;28;20037;-86
2022/06/25 10:39:55;;;;;;;10.30;7.03;;;;;;;26.47;46.41;95249.53;5025056;28;20053;-86
2022/06/25 10:45:28;;;;;;;13.65;7.13;;;;;;;26.64;46.87;95247.22;5012208;28;20143;-86
2022/06/25 10:47:54;;;;;;;12.70;6.63;;;;;;;26.61;47.23;95260.72;5026258;28;20116;-86
2022/06/25 10:50:22;;;;;;;15.05;7.20;;;;;;;26.79;47.47;95246.28;5025106;28;20047;-85
2022/06/25 10:53:03;;;;;;;13.30;6.93;;;;;;;26.56;46.70;95253.31;5026374;28;20029;-85
2022/06/25 10:55:35;;;;;;;9.95;6.32;;;;;;;26.85;46.84;95241.59;5026103;28;20060;-86
2022/06/25 10:58:16;;;;;;;11.30;6.72;;;;;;;26.84;45.73;95237.16;5025090;28;20148;-85
2022/06/25 11:00:46;;;;;;;11.00;6.10;;;;;;;27.03;47.03;95240.09;5024738;28;20060;-85
2022/06/25 11:03:11;;;;;;;10.50;6.47;;;;;;;27.13;46.83;95236.41;5026351;28;20028;-85
2022/06/25 11:05:41;;;;;;;16.30;7.15;;;;;;;27.09;46.37;95237.28;5024422;28;20033;-86
2022/06/25 11:08:07;;;;;;;12.95;7.13;;;;;;;27.18;45.80;95241.06;5010558;28;20025;-85
2022/06/25 11:10:36;;;;;;;10.13;6.65;;;;;;;27.51;45.70;95227.56;5012586;28;20057;-85
2022/06/25 11:13:03;;;;;;;11.85;6.80;;;;;;;27.91;47.70;95218.31;5028407;28;20030;-86
2022/06/25 11:15:46;;;;;;;16.60;7.38;;;;;;;27.92;45.36;95217.22;5013088;28;20069;-86
2022/06/25 11:18:14;;;;;;;14.50;6.93;;;;;;;27.92;45.32;95214.47;5013633;28;20045;-86
2022/06/25 11:20:40;;;;;;;16.15;6.65;;;;;;;28.13;44.25;95206.75;5028656;28;20037;-86
2022/06/25 11:23:10;;;;;;;12.93;6.20;;;;;;;28.12;42.94;95198.78;5011909;28;20041;-86
2022/06/25 11:28:48;;;;;;;17.92;6.00;;;;;;;28.08;43.71;95193.06;5028936;28;20063;-86
2022/06/25 11:31:17;;;;;;;14.07;6.20;;;;;;;28.07;43.21;95196.09;5029686;28;20167;-86
2022/06/25 11:33:43;;;;;;;12.40;5.97;;;;;;;27.99;43.11;95192.88;5028344;28;20171;-86
2022/06/25 11:36:11;;;;;;;10.95;5.63;;;;;;;27.99;42.28;95178.25;5028319;28;20029;-86
2022/06/25 11:38:37;;;;;;;16.33;5.65;;;;;;;28.07;40.49;95183.13;5012054;28;20029;-86
2022/06/25 11:41:03;;;;;;;15.63;5.60;;;;;;;28.01;40.47;95190.66;5011787;28;20080;-87
2022/06/25 11:43:28;;;;;;;12.63;5.53;;;;;;;28.08;42.11;95189.47;5027871;28;20041;-87
2022/06/25 11:45:58;;;;;;;13.30;5.22;;;;;;;28.15;41.74;95187.16;5028581;28;20029;-86